Time,TemperatureF,DewpointF,PressureIn,WindDirection,WindDirectionDegrees,WindSpeedMPH,WindSpeedGustMPH,Humidity,HourlyPrecipIn,Conditions,Clouds,dailyrainin,SolarRadiationWatts/m^2,SoftwareType,DateUTC
2013-09-15 00:01:00,67.5,64.1,30.10,North,5,0.1,1.1,89,0.00,CLR,OVC,0.00,0.0,WeatherDisplay:10.37,2013-09-15 04:01:00,
2013-09-15 00:06:00,67.4,64.0,30.10,NE,35,0.0,0.0,89,0.00,CLR,OVC,0.00,0.0,WeatherDisplay:10.37,2013-09-15 04:06:00,
2013-09-15 00:11:00,67.3,63.9,30.10,NE,35,0.0,0.0,89,0.00,CLR,OVC,0.00,0.0,WeatherDisplay:10.37,2013-09-15 04:11:00,
2013-09-15 00:16:00,67.1,63.7,30.10,NE,35,0.0,0.0,89,0.00,CLR,OVC,0.00,0.0,WeatherDisplay:10.37,2013-09-15 04:16:00,
2013-09-15 00:21:00,66.9,63.9,30.10,NE,35,0.0,0.0,90,0.00,CLR,OVC,0.00,0.0,WeatherDisplay:10.37,2013-09-15 04:21:00,
2013-09-15 00:26:00,66.8,63.8,30.10,NE,35,0.0,0.0,90,0.00,CLR,OVC,0.00,0.0,WeatherDisplay:10.37,2013-09-15 04:26:00,
2013-09-15 00:31:00,66.8,63.8,30.10,NE,43,1.1,3.5,90,0.00,CLR,OVC,0.00,0.0,WeatherDisplay:10.37,2013-09-15 04:31:00,
2013-09-15 00:36:00,66.8,63.8,30.11,NNE,13,0.4,2.3,90,0.00,CLR,OVC,0.00,0.0,WeatherDisplay:10.37,2013-09-15 04:36:00,
2013-09-15 00:41:00,66.8,63.8,30.11,NNE,13,0.9,2.3,90,0.00,CLR,OVC,0.00,0.0,WeatherDisplay:10.37,2013-09-15 04:41:00,
2013-09-15 00:46:00,66.8,64.1,30.11,NNE,31,0.5,2.3,91,0.00,CLR,OVC,0.00,0.0,WeatherDisplay:10.37,2013-09-15 04:46:00,
2013-09-15 00:51:00,66.7,64.0,30.11,NE,35,1.1,3.5,91,0.00,CLR,OVC,0.00,0.0,WeatherDisplay:10.37,2013-09-15 04:51:00,
2013-09-15 00:56:00,66.7,64.0,30.11,NE,35,0.0,0.0,91,0.00,CLR,OVC,0.00,0.0,WeatherDisplay:10.37,2013-09-15 04:56:00,
2013-09-15 01:01:00,66.5,63.8,30.11,NE,35,0.0,0.0,91,0.00,CLR,OVC,0.00,0.0,WeatherDisplay:10.37,2013-09-15 05:01:00,
2013-09-15 01:06:00,66.4,63.7,30.11,NE,35,0.0,0.0,91,0.00,CLR,OVC,0.00,0.0,WeatherDisplay:10.37,2013-09-15 05:06:00,
2013-09-15 01:11:00,66.3,63.6,30.11,NE,34,0.0,1.1,91,0.00,CLR,OVC,0.00,0.0,WeatherDisplay:10.37,2013-09-15 05:11:00,
2013-09-15 01:16:00,66.2,63.5,30.11,NE,37,1.4,3.5,91,0.00,CLR,OVC,0.00,0.0,WeatherDisplay:10.37,2013-09-15 05:16:00,
2013-09-15 01:21:00,66.1,63.7,30.11,NE,36,0.0,1.1,92,0.00,CLR,OVC,0.00,0.0,WeatherDisplay:10.37,2013-09-15 05:21:00,
2013-09-15 01:26:00,66.1,63.4,30.11,NE,36,0.0,0.0,91,0.00,CLR,OVC,0.00,0.0,WeatherDisplay:10.37,2013-09-15 05:26:00,
2013-09-15 01:31:00,66.0,63.3,30.11,NNE,30,1.3,4.0,91,0.00,CLR,OVC,0.00,0.0,WeatherDisplay:10.37,2013-09-15 05:31:00,
2013-09-15 01:36:00,65.9,63.5,30.11,NE,42,0.0,0.0,92,0.00,CLR,OVC,0.00,0.0,WeatherDisplay:10.37,2013-09-15 05:36:00,
2013-09-15 01:41:00,65.9,63.5,30.11,NE,38,2.2,3.5,92,0.00,CLR,OVC,0.00,0.0,WeatherDisplay:10.37,2013-09-15 05:41:00,
2013-09-15 01:46:00,65.8,63.4,30.11,NNE,33,0.7,4.0,92,0.00,CLR,OVC,0.00,0.0,WeatherDisplay:10.37,2013-09-15 05:46:00,
2013-09-15 01:51:00,65.8,63.4,30.11,NNE,16,0.1,1.0,92,0.00,CLR,OVC,0.00,0.0,WeatherDisplay:10.37,2013-09-15 05:51:00,
2013-09-15 01:56:00,65.7,63.3,30.11,North,11,0.1,1.1,92,0.00,CLR,OVC,0.00,0.0,WeatherDisplay:10.37,2013-09-15 05:56:00,
2013-09-15 02:01:00,65.6,63.2,30.11,NNE,13,0.0,0.0,92,0.00,CLR,OVC,0.00,0.0,WeatherDisplay:10.37,2013-09-15 06:01:00,
2013-09-15 02:06:00,65.5,63.1,30.11,NNE,23,0.1,1.1,92,0.00,CLR,OVC,0.00,0.0,WeatherDisplay:10.37,2013-09-15 06:06:00,
2013-09-15 02:11:00,65.4,63.0,30.12,NNE,23,0.0,0.0,92,0.00,CLR,OVC,0.00,0.0,WeatherDisplay:10.37,2013-09-15 06:11:00,
2013-09-15 02:16:00,65.3,62.9,30.12,NNE,22,0.4,1.1,92,0.00,CLR,OVC,0.00,0.0,WeatherDisplay:10.37,2013-09-15 06:16:00,
2013-09-15 02:21:00,65.2,62.8,30.12,NNE,22,0.0,1.1,92,0.00,CLR,OVC,0.00,0.0,WeatherDisplay:10.37,2013-09-15 06:21:00,
2013-09-15 02:26:00,65.1,62.7,30.11,NNE,22,0.0,0.0,92,0.00,CLR,OVC,0.00,0.0,WeatherDisplay:10.37,2013-09-15 06:26:00,
2013-09-15 02:31:00,65.1,63.0,30.11,NNE,22,0.0,0.0,93,0.00,CLR,OVC,0.00,0.0,WeatherDisplay:10.37,2013-09-15 06:31:00,
2013-09-15 02:36:00,65.1,62.7,30.11,NNE,22,0.0,0.0,92,0.00,CLR,OVC,0.00,0.0,WeatherDisplay:10.37,2013-09-15 06:36:00,
2013-09-15 02:41:00,65.0,62.6,30.12,NNE,22,0.0,0.0,92,0.00,CLR,OVC,0.00,0.0,WeatherDisplay:10.37,2013-09-15 06:41:00,
2013-09-15 02:46:00,64.9,62.5,30.12,NNE,22,0.0,0.0,92,0.00,CLR,OVC,0.00,0.0,WeatherDisplay:10.37,2013-09-15 06:46:00,
2013-09-15 02:52:00,64.8,62.4,30.12,NNE,22,0.0,0.0,92,0.00,CLR,OVC,0.00,0.0,WeatherDisplay:10.37,2013-09-15 06:52:00,
2013-09-15 02:57:00,64.7,62.6,30.12,NNE,22,0.0,0.0,93,0.00,CLR,OVC,0.00,0.0,WeatherDisplay:10.37,2013-09-15 06:57:00,
2013-09-15 03:02:00,64.6,62.5,30.13,NNE,22,0.3,0.0,93,0.00,CLR,OVC,0.00,0.0,WeatherDisplay:10.37,2013-09-15 07:02:00,
2013-09-15 03:07:00,64.6,62.5,30.12,NNE,29,0.9,3.5,93,0.00,CLR,OVC,0.00,0.0,WeatherDisplay:10.37,2013-09-15 07:07:00,
2013-09-15 03:12:00,64.8,63.0,30.12,NNE,32,0.0,0.0,94,0.00,CLR,OVC,0.00,0.0,WeatherDisplay:10.37,2013-09-15 07:12:00,
2013-09-15 03:17:00,65.0,62.9,30.11,NNE,26,2.4,5.8,93,0.00,CLR,OVC,0.00,0.0,WeatherDisplay:10.37,2013-09-15 07:17:00,
2013-09-15 03:22:00,65.0,62.9,30.11,NNE,32,0.4,2.3,93,0.00,CLR,OVC,0.00,0.0,WeatherDisplay:10.37,2013-09-15 07:22:00,
2013-09-15 03:27:00,65.1,63.0,30.12,ENE,66,1.7,5.8,93,0.00,CLR,OVC,0.00,0.0,WeatherDisplay:10.37,2013-09-15 07:27:00,
2013-09-15 03:32:00,65.1,63.0,30.12,NE,43,0.1,3.5,93,0.00,CLR,OVC,0.00,0.0,WeatherDisplay:10.37,2013-09-15 07:32:00,
2013-09-15 03:37:00,65.2,63.1,30.11,NE,52,2.4,3.5,93,0.00,CLR,OVC,0.00,0.0,WeatherDisplay:10.37,2013-09-15 07:37:00,
2013-09-15 03:42:00,65.3,63.2,30.12,NE,36,1.5,4.6,93,0.00,CLR,OVC,0.00,0.0,WeatherDisplay:10.37,2013-09-15 07:42:00,
2013-09-15 03:47:00,65.3,63.2,30.12,NNE,33,0.3,2.3,93,0.00,CLR,OVC,0.00,0.0,WeatherDisplay:10.37,2013-09-15 07:47:00,
2013-09-15 03:52:00,65.4,63.0,30.12,NNE,26,1.6,3.5,92,0.00,CLR,OVC,0.00,0.0,WeatherDisplay:10.37,2013-09-15 07:52:00,
2013-09-15 03:57:00,65.4,63.0,30.12,NNE,26,0.7,3.5,92,0.00,CLR,OVC,0.00,0.0,WeatherDisplay:10.37,2013-09-15 07:57:00,
2013-09-15 04:02:00,65.4,63.0,30.12,NE,40,0.0,0.0,92,0.00,CLR,OVC,0.00,0.0,WeatherDisplay:10.37,2013-09-15 08:02:00,
2013-09-15 04:07:00,65.3,62.9,30.12,NE,40,0.0,0.0,92,0.00,CLR,OVC,0.00,0.0,WeatherDisplay:10.37,2013-09-15 08:07:00,
2013-09-15 04:12:00,65.2,62.8,30.13,NE,41,0.0,0.0,92,0.00,CLR,OVC,0.00,0.0,WeatherDisplay:10.37,2013-09-15 08:12:00,
2013-09-15 04:17:00,65.1,62.7,30.13,NE,40,0.0,1.1,92,0.00,CLR,OVC,0.00,0.0,WeatherDisplay:10.37,2013-09-15 08:17:00,
2013-09-15 04:22:00,64.9,62.5,30.12,NE,40,0.0,0.0,92,0.00,CLR,OVC,0.00,0.0,WeatherDisplay:10.37,2013-09-15 08:22:00,
2013-09-15 04:27:00,64.7,62.3,30.13,NE,40,0.0,0.0,92,0.00,CLR,OVC,0.00,0.0,WeatherDisplay:10.37,2013-09-15 08:27:00,
2013-09-15 04:32:00,64.5,62.4,30.13,NE,40,0.0,0.0,93,0.00,CLR,OVC,0.00,0.0,WeatherDisplay:10.37,2013-09-15 08:32:00,
2013-09-15 04:37:00,64.4,62.3,30.13,NE,40,0.0,0.0,93,0.00,CLR,OVC,0.00,0.0,WeatherDisplay:10.37,2013-09-15 08:37:00,
2013-09-15 04:42:00,64.3,62.2,30.13,NE,40,0.0,0.0,93,0.00,CLR,OVC,0.00,0.0,WeatherDisplay:10.37,2013-09-15 08:42:00,
2013-09-15 04:47:00,64.2,62.1,30.13,NE,40,0.0,0.0,93,0.00,CLR,OVC,0.00,0.0,WeatherDisplay:10.37,2013-09-15 08:47:00,
2013-09-15 04:52:00,64.0,61.9,30.14,NE,40,0.0,0.0,93,0.00,CLR,OVC,0.00,0.0,WeatherDisplay:10.37,2013-09-15 08:52:00,
2013-09-15 04:57:00,64.0,62.2,30.14,NE,40,0.0,0.0,94,0.00,CLR,OVC,0.00,0.0,WeatherDisplay:10.37,2013-09-15 08:57:00,
2013-09-15 05:02:00,63.9,62.1,30.14,NE,40,0.0,0.0,94,0.00,CLR,OVC,0.00,0.0,WeatherDisplay:10.37,2013-09-15 09:02:00,
2013-09-15 05:07:00,63.8,62.0,30.14,NE,40,0.5,2.3,94,0.00,CLR,OVC,0.00,0.0,WeatherDisplay:10.37,2013-09-15 09:07:00,
2013-09-15 05:12:00,63.8,62.0,30.14,NNE,32,0.1,1.1,94,0.00,CLR,OVC,0.00,0.0,WeatherDisplay:10.37,2013-09-15 09:12:00,
2013-09-15 05:17:00,63.8,62.0,30.14,NNE,32,0.1,1.1,94,0.00,CLR,OVC,0.00,0.0,WeatherDisplay:10.37,2013-09-15 09:17:00,
2013-09-15 05:22:00,63.8,62.0,30.14,NNE,32,0.0,0.0,94,0.00,CLR,OVC,0.00,0.0,WeatherDisplay:10.37,2013-09-15 09:22:00,
2013-09-15 05:27:00,63.8,62.0,30.15,North,5,0.0,0.0,94,0.00,CLR,OVC,0.00,0.0,WeatherDisplay:10.37,2013-09-15 09:27:00,
2013-09-15 05:32:00,63.7,62.2,30.15,North,5,0.0,0.0,95,0.00,CLR,OVC,0.00,0.0,WeatherDisplay:10.37,2013-09-15 09:32:00,
2013-09-15 05:37:00,63.7,61.9,30.15,North,5,0.0,0.0,94,0.00,CLR,OVC,0.00,0.0,WeatherDisplay:10.37,2013-09-15 09:37:00,
2013-09-15 05:42:00,63.6,62.1,30.15,North,5,0.0,0.0,95,0.00,CLR,OVC,0.00,0.0,WeatherDisplay:10.37,2013-09-15 09:42:00,
2013-09-15 05:47:00,63.7,62.2,30.15,NE,41,0.0,0.0,95,0.00,CLR,OVC,0.00,0.0,WeatherDisplay:10.37,2013-09-15 09:47:00,
2013-09-15 05:52:00,63.7,62.2,30.15,NE,42,0.0,0.0,95,0.00,CLR,OVC,0.00,0.0,WeatherDisplay:10.37,2013-09-15 09:52:00,
2013-09-15 05:57:00,63.6,62.1,30.15,NE,42,0.0,0.0,95,0.00,CLR,OVC,0.00,0.0,WeatherDisplay:10.37,2013-09-15 09:57:00,
2013-09-15 06:02:00,63.6,62.1,30.15,NE,42,0.0,0.0,95,0.00,CLR,OVC,0.00,0.0,WeatherDisplay:10.37,2013-09-15 10:02:00,
2013-09-15 06:07:00,63.5,62.0,30.15,NE,42,0.0,0.0,95,0.00,CLR,OVC,0.00,0.0,WeatherDisplay:10.37,2013-09-15 10:07:00,
2013-09-15 06:12:00,63.4,61.9,30.15,NNE,30,0.0,0.0,95,0.00,CLR,OVC,0.00,0.0,WeatherDisplay:10.37,2013-09-15 10:12:00,
2013-09-15 06:17:00,63.4,61.9,30.15,NNE,32,0.0,0.0,95,0.00,CLR,OVC,0.00,0.0,WeatherDisplay:10.37,2013-09-15 10:17:00,
2013-09-15 06:22:00,63.4,61.9,30.15,NNE,32,0.0,0.0,95,0.00,CLR,OVC,0.00,0.0,WeatherDisplay:10.37,2013-09-15 10:22:00,
2013-09-15 06:27:00,63.4,61.9,30.15,ENE,59,0.0,0.0,95,0.00,OVC,,0.00,0.0,WeatherDisplay:10.37,2013-09-15 10:27:00,
2013-09-15 06:32:00,63.4,61.9,30.15,ENE,57,0.0,0.0,95,0.00,OVC,,0.00,0.0,WeatherDisplay:10.37,2013-09-15 10:32:00,
2013-09-15 06:37:00,63.3,61.8,30.16,NNE,22,0.0,0.0,95,0.00,OVC,,0.00,0.0,WeatherDisplay:10.37,2013-09-15 10:37:00,
2013-09-15 06:42:00,63.3,61.8,30.16,NE,38,0.0,0.0,95,0.00,OVC,,0.00,0.0,WeatherDisplay:10.37,2013-09-15 10:42:00,
2013-09-15 06:47:00,63.3,61.8,30.16,NE,46,0.0,0.0,95,0.00,OVC,,0.00,0.0,WeatherDisplay:10.37,2013-09-15 10:47:00,
2013-09-15 06:52:00,63.2,61.7,30.16,NE,49,0.3,1.0,95,0.00,OVC,,0.00,0.0,WeatherDisplay:10.37,2013-09-15 10:52:00,
2013-09-15 06:57:00,63.2,61.7,30.16,NE,48,0.0,0.0,95,0.00,OVC,,0.00,0.0,WeatherDisplay:10.37,2013-09-15 10:57:00,
2013-09-15 07:02:00,63.2,62.0,30.16,NE,48,0.0,0.0,96,0.00,OVC,,0.00,0.0,WeatherDisplay:10.37,2013-09-15 11:02:00,
2013-09-15 07:07:00,63.1,61.9,30.17,NE,46,0.0,0.0,96,0.00,OVC,,0.00,0.0,WeatherDisplay:10.37,2013-09-15 11:07:00,
2013-09-15 07:12:00,63.1,61.9,30.17,NE,46,0.0,0.0,96,0.00,OVC,,0.00,0.0,WeatherDisplay:10.37,2013-09-15 11:12:00,
2013-09-15 07:17:00,63.1,61.9,30.17,NE,46,0.0,0.0,96,0.00,OVC,,0.00,0.0,WeatherDisplay:10.37,2013-09-15 11:17:00,
2013-09-15 07:22:00,63.1,61.9,30.17,NE,46,0.0,0.0,96,0.00,OVC,,0.00,0.0,WeatherDisplay:10.37,2013-09-15 11:22:00,
2013-09-15 07:27:00,63.1,61.9,30.17,NE,46,0.0,0.0,96,0.00,OVC,,0.00,0.0,WeatherDisplay:10.37,2013-09-15 11:27:00,
2013-09-15 07:32:00,63.2,62.0,30.17,NE,55,0.0,0.0,96,0.00,OVC,,0.00,0.0,WeatherDisplay:10.37,2013-09-15 11:32:00,
2013-09-15 07:37:00,63.6,62.4,30.17,NE,46,0.5,1.0,96,0.00,OVC,,0.00,0.0,WeatherDisplay:10.37,2013-09-15 11:37:00,
2013-09-15 07:42:00,63.9,62.4,30.18,NE,37,0.1,3.5,95,0.00,OVC,,0.00,0.0,WeatherDisplay:10.37,2013-09-15 11:42:00,
2013-09-15 07:47:00,64.4,62.9,30.18,NE,48,0.0,3.5,95,0.00,OVC,,0.00,0.0,WeatherDisplay:10.37,2013-09-15 11:47:00,
2013-09-15 07:52:00,64.8,63.0,30.18,NE,52,0.2,2.3,94,0.00,OVC,,0.00,0.0,WeatherDisplay:10.37,2013-09-15 11:52:00,
2013-09-15 07:57:00,65.3,63.2,30.18,ENE,57,0.0,3.5,93,0.00,OVC,,0.00,0.0,WeatherDisplay:10.37,2013-09-15 11:57:00,
2013-09-15 08:02:00,65.8,63.7,30.17,NE,53,0.0,0.0,93,0.00,OVC,,0.00,0.0,WeatherDisplay:10.37,2013-09-15 12:02:00,
2013-09-15 08:07:00,66.5,64.1,30.17,NE,49,0.0,0.0,92,0.00,OVC,,0.00,0.0,WeatherDisplay:10.37,2013-09-15 12:07:00,
2013-09-15 08:12:00,67.0,64.0,30.17,NE,55,0.2,2.3,90,0.00,OVC,,0.00,0.0,WeatherDisplay:10.37,2013-09-15 12:12:00,
2013-09-15 08:17:00,67.5,64.5,30.17,NNW,346,3.9,5.8,90,0.00,OVC,,0.00,0.0,WeatherDisplay:10.37,2013-09-15 12:17:00,
2013-09-15 08:22:00,67.9,64.2,30.17,NE,41,1.1,3.5,88,0.00,OVC,,0.00,0.0,WeatherDisplay:10.37,2013-09-15 12:22:00,
2013-09-15 08:28:00,68.4,64.7,30.17,NE,38,2.1,4.6,88,0.00,OVC,,0.00,0.0,WeatherDisplay:10.37,2013-09-15 12:28:00,
2013-09-15 08:33:00,68.6,64.6,30.17,NNE,26,3.5,6.9,87,0.00,OVC,,0.00,0.0,WeatherDisplay:10.37,2013-09-15 12:33:00,
2013-09-15 08:38:00,68.9,64.9,30.17,NE,55,3.8,5.8,87,0.00,OVC,,0.00,0.0,WeatherDisplay:10.37,2013-09-15 12:38:00,
2013-09-15 08:43:00,69.5,65.5,30.18,NE,42,3.9,5.8,87,0.00,OVC,,0.00,0.0,WeatherDisplay:10.37,2013-09-15 12:43:00,
2013-09-15 08:48:00,70.0,65.6,30.18,NNE,24,3.6,7.0,86,0.00,OVC,,0.00,0.0,WeatherDisplay:10.37,2013-09-15 12:48:00,
2013-09-15 08:53:00,70.2,65.8,30.18,NE,44,2.9,6.9,86,0.00,OVC,,0.00,0.0,WeatherDisplay:10.37,2013-09-15 12:53:00,
2013-09-15 08:58:00,70.6,66.2,30.19,NE,42,1.4,4.0,86,0.00,OVC,,0.00,0.0,WeatherDisplay:10.37,2013-09-15 12:58:00,
2013-09-15 09:03:00,71.2,66.1,30.19,NNE,33,5.8,9.2,84,0.00,OVC,,0.00,0.0,WeatherDisplay:10.37,2013-09-15 13:03:00,
2013-09-15 09:08:00,71.7,66.6,30.19,North,11,5.3,9.2,84,0.00,OVC,,0.00,0.0,WeatherDisplay:10.37,2013-09-15 13:08:00,
2013-09-15 09:13:00,71.9,66.5,30.19,NE,55,5.3,10.4,83,0.00,OVC,,0.00,0.0,WeatherDisplay:10.37,2013-09-15 13:13:00,
2013-09-15 09:18:00,72.5,67.0,30.19,ENE,72,2.6,4.6,83,0.00,OVC,,0.00,0.0,WeatherDisplay:10.37,2013-09-15 13:18:00,
2013-09-15 09:23:00,73.1,67.3,30.19,ENE,65,3.9,8.1,82,0.00,OVC,,0.00,0.0,WeatherDisplay:10.37,2013-09-15 13:23:00,
2013-09-15 09:28:00,73.7,67.5,30.19,East,80,7.7,9.2,81,0.00,OVC,,0.00,0.0,WeatherDisplay:10.37,2013-09-15 13:28:00,
2013-09-15 09:33:00,74.0,67.4,30.19,NE,50,6.6,7.0,80,0.00,OVC,,0.00,0.0,WeatherDisplay:10.37,2013-09-15 13:33:00,
2013-09-15 09:38:00,74.0,67.4,30.19,NE,41,5.7,8.1,80,0.00,OVC,,0.00,0.0,WeatherDisplay:10.37,2013-09-15 13:38:00,
2013-09-15 09:43:00,74.5,67.9,30.19,ENE,67,5.9,8.1,80,0.00,OVC,,0.00,0.0,WeatherDisplay:10.37,2013-09-15 13:43:00,
2013-09-15 09:48:00,75.0,68.0,30.19,NE,53,4.2,8.1,79,0.00,OVC,,0.00,0.0,WeatherDisplay:10.37,2013-09-15 13:48:00,
2013-09-15 09:53:00,75.2,68.2,30.20,East,80,6.0,10.4,79,0.00,OVC,,0.00,0.0,WeatherDisplay:10.37,2013-09-15 13:53:00,
2013-09-15 09:58:00,75.5,68.2,30.20,NNE,19,6.4,12.7,78,0.00,OVC,,0.00,0.0,WeatherDisplay:10.37,2013-09-15 13:58:00,
2013-09-15 10:03:00,75.8,68.4,30.20,ENE,74,4.4,6.9,78,0.00,OVC,,0.00,0.0,WeatherDisplay:10.37,2013-09-15 14:03:00,
2013-09-15 10:08:00,76.1,68.7,30.20,NE,50,5.0,11.5,78,0.00,OVC,,0.00,0.0,WeatherDisplay:10.37,2013-09-15 14:08:00,
2013-09-15 10:13:00,76.4,69.0,30.21,East,97,4.4,7.0,78,0.00,OVC,,0.00,0.0,WeatherDisplay:10.37,2013-09-15 14:13:00,
2013-09-15 10:18:00,76.8,69.0,30.20,ENE,78,2.4,5.8,77,0.00,OVC,,0.00,0.0,WeatherDisplay:10.37,2013-09-15 14:18:00,
2013-09-15 10:23:00,77.0,68.5,30.20,ENE,67,8.0,11.5,75,0.00,OVC,,0.00,0.0,WeatherDisplay:10.37,2013-09-15 14:23:00,
2013-09-15 10:28:00,76.7,68.9,30.20,NNE,28,5.8,11.5,77,0.00,OVC,,0.00,0.0,WeatherDisplay:10.37,2013-09-15 14:28:00,
2013-09-15 10:33:00,76.8,69.0,30.20,ENE,63,7.1,10.4,77,0.00,OVC,,0.00,0.0,WeatherDisplay:10.37,2013-09-15 14:33:00,
2013-09-15 10:42:00,77.4,69.6,30.20,NE,40,3.2,8.1,77,0.00,OVC,,0.00,0.0,WeatherDisplay:10.37,2013-09-15 14:42:00,
2013-09-15 10:47:00,77.9,69.3,30.20,NE,36,6.9,6.9,75,0.00,OVC,,0.00,0.0,WeatherDisplay:10.37,2013-09-15 14:47:00,
2013-09-15 10:52:00,78.1,69.5,30.20,NE,36,7.7,12.7,75,0.00,OVC,,0.00,0.0,WeatherDisplay:10.37,2013-09-15 14:52:00,
2013-09-15 10:57:00,78.4,69.8,30.20,ENE,65,6.1,9.0,75,0.00,OVC,,0.00,0.0,WeatherDisplay:10.37,2013-09-15 14:57:00,
2013-09-15 11:02:00,78.8,69.4,30.20,NNW,332,9.6,15.0,73,0.00,OVC,,0.00,0.0,WeatherDisplay:10.37,2013-09-15 15:02:00,
2013-09-15 11:07:00,78.7,69.7,30.20,ENE,61,5.2,11.5,74,0.00,OVC,,0.00,0.0,WeatherDisplay:10.37,2013-09-15 15:07:00,
2013-09-15 11:12:00,78.4,69.4,30.20,ENE,71,8.5,11.5,74,0.00,OVC,,0.00,0.0,WeatherDisplay:10.37,2013-09-15 15:12:00,
2013-09-15 11:17:00,78.5,69.5,30.19,NE,42,7.1,9.2,74,0.00,OVC,,0.00,0.0,WeatherDisplay:10.37,2013-09-15 15:17:00,
2013-09-15 11:22:00,78.4,69.4,30.19,East,79,7.0,9.0,74,0.00,OVC,,0.00,0.0,WeatherDisplay:10.37,2013-09-15 15:22:00,
2013-09-15 11:27:00,78.9,69.5,30.19,East,97,5.5,8.1,73,0.00,OVC,,0.00,0.0,WeatherDisplay:10.37,2013-09-15 15:27:00,
2013-09-15 11:32:00,79.0,69.6,30.20,ENE,62,6.3,10.4,73,0.00,OVC,,0.00,0.0,WeatherDisplay:10.37,2013-09-15 15:32:00,
2013-09-15 11:37:00,79.1,69.3,30.20,NE,44,6.4,11.5,72,0.00,OVC,,0.00,0.0,WeatherDisplay:10.37,2013-09-15 15:37:00,
2013-09-15 11:42:00,78.8,69.4,30.20,North,9,6.5,11.5,73,0.00,OVC,,0.00,0.0,WeatherDisplay:10.37,2013-09-15 15:42:00,
2013-09-15 11:47:00,78.7,69.3,30.20,East,89,9.8,13.8,73,0.00,OVC,,0.00,0.0,WeatherDisplay:10.37,2013-09-15 15:47:00,
2013-09-15 11:53:00,78.7,69.7,30.20,NE,45,7.1,10.4,74,0.00,OVC,,0.00,0.0,WeatherDisplay:10.37,2013-09-15 15:53:00,
2013-09-15 11:58:00,79.1,69.7,30.20,NE,41,7.7,10.4,73,0.00,OVC,,0.00,0.0,WeatherDisplay:10.37,2013-09-15 15:58:00,
2013-09-15 12:03:00,79.3,69.5,30.20,ENE,71,6.6,11.5,72,0.00,OVC,,0.00,0.0,WeatherDisplay:10.37,2013-09-15 16:03:00,
2013-09-15 12:08:00,79.6,69.4,30.20,ENE,74,8.5,11.5,71,0.00,OVC,,0.00,0.0,WeatherDisplay:10.37,2013-09-15 16:08:00,
2013-09-15 12:13:00,79.6,69.4,30.20,NE,44,9.1,13.8,71,0.00,OVC,,0.00,0.0,WeatherDisplay:10.37,2013-09-15 16:13:00,
2013-09-15 12:18:00,79.8,70.0,30.20,ENE,67,8.2,11.5,72,0.00,OVC,,0.00,0.0,WeatherDisplay:10.37,2013-09-15 16:18:00,
2013-09-15 12:23:00,79.9,69.7,30.20,ENE,63,6.7,12.7,71,0.00,OVC,,0.00,0.0,WeatherDisplay:10.37,2013-09-15 16:23:00,
2013-09-15 12:28:00,79.8,69.6,30.19,NE,44,6.5,10.4,71,0.00,OVC,,0.00,0.0,WeatherDisplay:10.37,2013-09-15 16:28:00,
2013-09-15 12:33:00,80.0,69.7,30.19,ENE,74,9.2,9.2,71,0.00,OVC,,0.00,0.0,WeatherDisplay:10.37,2013-09-15 16:33:00,
2013-09-15 12:38:00,79.9,69.7,30.19,NE,35,6.6,8.1,71,0.00,OVC,,0.00,0.0,WeatherDisplay:10.37,2013-09-15 16:38:00,
2013-09-15 12:43:00,79.7,69.0,30.19,NE,42,7.8,11.5,70,0.00,OVC,,0.00,0.0,WeatherDisplay:10.37,2013-09-15 16:43:00,
2013-09-15 12:48:00,79.7,69.5,30.19,ENE,69,5.3,8.1,71,0.00,OVC,,0.00,0.0,WeatherDisplay:10.37,2013-09-15 16:48:00,
2013-09-15 12:53:00,79.7,69.5,30.19,ESE,104,5.8,10.4,71,0.00,OVC,,0.00,0.0,WeatherDisplay:10.37,2013-09-15 16:53:00,
2013-09-15 12:58:00,79.9,69.7,30.19,NE,42,4.5,6.9,71,0.00,OVC,,0.00,0.0,WeatherDisplay:10.37,2013-09-15 16:58:00,
2013-09-15 13:03:00,80.2,69.9,30.19,NNE,26,5.5,5.8,71,0.00,OVC,,0.00,0.0,WeatherDisplay:10.37,2013-09-15 17:03:00,
2013-09-15 13:08:00,80.9,70.2,30.19,SE,133,5.8,11.0,70,0.00,OVC,,0.00,0.0,WeatherDisplay:10.37,2013-09-15 17:08:00,
2013-09-15 13:13:00,80.8,69.7,30.19,NNE,25,6.5,11.5,69,0.00,OVC,,0.00,0.0,WeatherDisplay:10.37,2013-09-15 17:13:00,
2013-09-15 13:18:00,80.6,69.5,30.19,East,94,5.1,9.2,69,0.00,OVC,,0.00,0.0,WeatherDisplay:10.37,2013-09-15 17:18:00,
2013-09-15 13:23:00,80.0,68.9,30.19,ENE,74,8.6,11.5,69,0.00,OVC,,0.00,0.0,WeatherDisplay:10.37,2013-09-15 17:23:00,
2013-09-15 13:28:00,79.7,69.5,30.18,ESE,117,5.7,10.4,71,0.00,OVC,,0.00,0.0,WeatherDisplay:10.37,2013-09-15 17:28:00,
2013-09-15 13:33:00,79.9,69.7,30.18,NE,47,2.1,8.1,71,0.00,OVC,,0.00,0.0,WeatherDisplay:10.37,2013-09-15 17:33:00,
2013-09-15 13:38:00,80.3,69.2,30.18,NNE,30,7.7,11.5,69,0.00,OVC,,0.00,0.0,WeatherDisplay:10.37,2013-09-15 17:38:00,
2013-09-15 13:43:00,80.3,69.6,30.18,ENE,72,6.4,8.1,70,0.00,OVC,,0.00,0.0,WeatherDisplay:10.37,2013-09-15 17:43:00,
2013-09-15 13:48:00,80.5,69.8,30.18,ENE,59,6.5,11.5,70,0.00,OVC,,0.00,0.0,WeatherDisplay:10.37,2013-09-15 17:48:00,
2013-09-15 13:53:00,80.4,69.3,30.17,NE,38,7.3,8.1,69,0.00,OVC,,0.00,0.0,WeatherDisplay:10.37,2013-09-15 17:53:00,
2013-09-15 13:58:00,80.2,69.5,30.17,ENE,60,5.3,10.4,70,0.00,OVC,,0.00,0.0,WeatherDisplay:10.37,2013-09-15 17:58:00,
2013-09-15 14:03:00,80.1,69.4,30.17,ESE,104,7.5,10.4,70,0.00,OVC,,0.00,0.0,WeatherDisplay:10.37,2013-09-15 18:03:00,
2013-09-15 14:08:00,80.0,69.3,30.17,South,169,2.1,8.1,70,0.00,OVC,,0.00,0.0,WeatherDisplay:10.37,2013-09-15 18:08:00,
2013-09-15 14:13:00,80.1,69.0,30.17,NE,49,7.1,10.4,69,0.00,OVC,,0.00,0.0,WeatherDisplay:10.37,2013-09-15 18:13:00,
2013-09-15 14:18:00,80.0,69.3,30.16,ENE,63,4.5,6.9,70,0.00,OVC,,0.00,0.0,WeatherDisplay:10.37,2013-09-15 18:18:00,
2013-09-15 14:23:00,80.1,69.4,30.16,NE,40,6.0,9.2,70,0.00,OVC,,0.00,0.0,WeatherDisplay:10.37,2013-09-15 18:23:00,
2013-09-15 14:28:00,80.2,69.5,30.16,NNE,18,3.1,5.8,70,0.00,OVC,,0.00,0.0,WeatherDisplay:10.37,2013-09-15 18:28:00,
2013-09-15 14:33:00,80.5,69.4,30.16,ESE,118,5.2,8.1,69,0.00,OVC,,0.00,0.0,WeatherDisplay:10.37,2013-09-15 18:33:00,
2013-09-15 14:38:00,80.3,69.2,30.16,ENE,71,3.9,6.9,69,0.00,OVC,,0.00,0.0,WeatherDisplay:10.37,2013-09-15 18:38:00,
2013-09-15 14:43:00,80.3,69.2,30.16,East,100,4.4,10.4,69,0.00,OVC,,0.00,0.0,WeatherDisplay:10.37,2013-09-15 18:43:00,
2013-09-15 14:48:00,80.7,70.0,30.16,NE,54,3.1,5.0,70,0.00,OVC,,0.00,0.0,WeatherDisplay:10.37,2013-09-15 18:48:00,
2013-09-15 14:53:00,81.0,69.4,30.16,ENE,63,6.5,9.2,68,0.00,OVC,,0.00,0.0,WeatherDisplay:10.37,2013-09-15 18:53:00,
2013-09-15 14:58:00,81.0,69.4,30.16,NE,44,4.1,9.2,68,0.00,OVC,,0.00,0.0,WeatherDisplay:10.37,2013-09-15 18:58:00,
2013-09-15 15:03:00,80.7,69.2,30.16,NE,40,5.7,9.2,68,0.00,OVC,,0.00,0.0,WeatherDisplay:10.37,2013-09-15 19:03:00,
2013-09-15 15:08:00,80.3,69.6,30.15,NE,46,5.2,9.2,70,0.00,OVC,,0.00,0.0,WeatherDisplay:10.37,2013-09-15 19:08:00,
2013-09-15 15:13:00,80.6,69.9,30.15,NE,46,5.9,10.4,70,0.00,OVC,,0.00,0.0,WeatherDisplay:10.37,2013-09-15 19:13:00,
2013-09-15 15:18:00,80.4,69.3,30.15,NE,51,4.9,10.4,69,0.00,OVC,,0.00,0.0,WeatherDisplay:10.37,2013-09-15 19:18:00,
2013-09-15 15:23:00,80.6,69.5,30.15,ENE,66,6.6,8.1,69,0.00,OVC,,0.00,0.0,WeatherDisplay:10.37,2013-09-15 19:23:00,
2013-09-15 15:28:00,80.7,69.6,30.15,East,91,6.5,8.1,69,0.00,OVC,,0.00,0.0,WeatherDisplay:10.37,2013-09-15 19:28:00,
2013-09-15 15:33:00,80.7,69.2,30.14,NE,41,8.2,11.0,68,0.00,OVC,,0.00,0.0,WeatherDisplay:10.37,2013-09-15 19:33:00,
2013-09-15 15:38:00,80.2,69.1,30.14,NE,44,6.1,9.2,69,0.00,OVC,,0.00,0.0,WeatherDisplay:10.37,2013-09-15 19:38:00,
2013-09-15 15:43:00,80.2,69.1,30.14,NE,42,6.0,9.2,69,0.00,OVC,,0.00,0.0,WeatherDisplay:10.37,2013-09-15 19:43:00,
2013-09-15 15:48:00,80.2,69.1,30.14,NNE,28,4.6,6.9,69,0.00,OVC,,0.00,0.0,WeatherDisplay:10.37,2013-09-15 19:48:00,
2013-09-15 15:53:00,80.5,69.8,30.14,NE,55,4.5,8.0,70,0.00,OVC,,0.00,0.0,WeatherDisplay:10.37,2013-09-15 19:53:00,
2013-09-15 15:58:00,80.8,69.2,30.14,ENE,61,6.8,8.1,68,0.00,OVC,,0.00,0.0,WeatherDisplay:10.37,2013-09-15 19:58:00,
2013-09-15 16:03:00,80.4,69.3,30.14,ENE,62,5.4,9.2,69,0.00,OVC,,0.00,0.0,WeatherDisplay:10.37,2013-09-15 20:03:00,
2013-09-15 16:08:00,80.4,68.9,30.14,ENE,64,6.9,11.5,68,0.00,OVC,,0.00,0.0,WeatherDisplay:10.37,2013-09-15 20:08:00,
2013-09-15 16:13:00,80.0,68.9,30.13,East,95,7.5,11.5,69,0.00,OVC,,0.00,0.0,WeatherDisplay:10.37,2013-09-15 20:13:00,
2013-09-15 16:18:00,79.9,68.8,30.13,East,85,5.5,9.2,69,0.00,OVC,,0.00,0.0,WeatherDisplay:10.37,2013-09-15 20:18:00,
2013-09-15 16:23:00,80.0,69.3,30.13,East,85,6.0,7.0,70,0.00,OVC,,0.00,0.0,WeatherDisplay:10.37,2013-09-15 20:23:00,
2013-09-15 16:28:00,79.8,69.1,30.13,ENE,74,4.6,10.4,70,0.00,OVC,,0.00,0.0,WeatherDisplay:10.37,2013-09-15 20:28:00,
2013-09-15 16:33:00,79.9,69.2,30.13,ESE,104,4.2,8.1,70,0.00,OVC,,0.00,0.0,WeatherDisplay:10.37,2013-09-15 20:33:00,
2013-09-15 16:38:00,80.1,69.0,30.12,NE,41,5.0,9.2,69,0.00,OVC,,0.00,0.0,WeatherDisplay:10.37,2013-09-15 20:38:00,
2013-09-15 16:43:00,80.3,69.2,30.13,ESE,122,2.2,4.6,69,0.00,OVC,,0.00,0.0,WeatherDisplay:10.37,2013-09-15 20:43:00,
2013-09-15 16:48:00,80.4,68.9,30.13,ENE,63,6.7,9.2,68,0.00,OVC,,0.00,0.0,WeatherDisplay:10.37,2013-09-15 20:48:00,
2013-09-15 16:53:00,80.1,69.0,30.13,NE,45,3.4,9.2,69,0.00,OVC,,0.00,0.0,WeatherDisplay:10.37,2013-09-15 20:53:00,
2013-09-15 16:58:00,80.1,69.0,30.13,ENE,71,3.1,5.8,69,0.00,OVC,,0.00,0.0,WeatherDisplay:10.37,2013-09-15 20:58:00,
2013-09-15 17:03:00,79.9,68.8,30.13,East,92,2.3,6.9,69,0.00,OVC,,0.00,0.0,WeatherDisplay:10.37,2013-09-15 21:03:00,
2013-09-15 17:08:00,79.8,69.1,30.13,East,80,4.7,13.0,70,0.00,OVC,,0.00,0.0,WeatherDisplay:10.37,2013-09-15 21:08:00,
2013-09-15 17:13:00,79.5,69.3,30.13,NE,34,6.7,9.2,71,0.00,OVC,,0.00,0.0,WeatherDisplay:10.37,2013-09-15 21:13:00,
2013-09-15 17:18:00,79.1,69.3,30.13,East,93,4.1,8.0,72,0.00,OVC,,0.00,0.0,WeatherDisplay:10.37,2013-09-15 21:18:00,
2013-09-15 17:23:00,78.7,69.3,30.13,ENE,73,1.6,4.6,73,0.00,OVC,,0.00,0.0,WeatherDisplay:10.37,2013-09-15 21:23:00,
2013-09-15 17:28:00,78.6,69.2,30.13,ENE,73,4.1,5.8,73,0.00,OVC,,0.00,0.0,WeatherDisplay:10.37,2013-09-15 21:28:00,
2013-09-15 17:33:00,78.6,69.6,30.13,ENE,68,2.7,5.8,74,0.00,OVC,,0.00,0.0,WeatherDisplay:10.37,2013-09-15 21:33:00,
2013-09-15 17:38:00,78.6,69.6,30.13,NE,50,0.9,5.0,74,0.00,OVC,,0.00,0.0,WeatherDisplay:10.37,2013-09-15 21:38:00,
2013-09-15 17:43:00,78.2,69.2,30.13,East,98,4.4,7.0,74,0.00,OVC,,0.00,0.0,WeatherDisplay:10.37,2013-09-15 21:43:00,
2013-09-15 17:48:00,77.8,69.2,30.13,SE,134,4.2,8.1,75,0.00,OVC,,0.00,0.0,WeatherDisplay:10.37,2013-09-15 21:48:00,
2013-09-15 17:53:00,77.6,69.4,30.14,SE,124,3.1,6.9,76,0.00,OVC,,0.00,0.0,WeatherDisplay:10.37,2013-09-15 21:53:00,
2013-09-15 17:58:00,77.4,69.2,30.13,ESE,117,4.0,6.9,76,0.00,OVC,,0.00,0.0,WeatherDisplay:10.37,2013-09-15 21:58:00,
2013-09-15 18:03:00,77.3,69.5,30.13,NE,49,3.4,5.8,77,0.00,OVC,,0.00,0.0,WeatherDisplay:10.37,2013-09-15 22:03:00,
2013-09-15 18:08:00,77.2,69.4,30.13,ENE,63,4.4,6.9,77,0.00,OVC,,0.00,0.0,WeatherDisplay:10.37,2013-09-15 22:08:00,
2013-09-15 18:13:00,77.3,69.5,30.13,East,92,1.4,2.3,77,0.00,OVC,,0.00,0.0,WeatherDisplay:10.37,2013-09-15 22:13:00,
2013-09-15 18:18:00,77.3,69.5,30.13,ENE,68,2.4,3.0,77,0.00,OVC,,0.00,0.0,WeatherDisplay:10.37,2013-09-15 22:18:00,
2013-09-15 18:23:00,77.4,69.6,30.13,ENE,71,4.6,7.0,77,0.00,OVC,,0.00,0.0,WeatherDisplay:10.37,2013-09-15 22:23:00,
2013-09-15 18:28:00,77.3,69.5,30.13,ENE,78,3.8,6.9,77,0.00,OVC,,0.00,0.0,WeatherDisplay:10.37,2013-09-15 22:28:00,
2013-09-15 18:34:00,77.1,69.7,30.13,ESE,121,0.3,3.5,78,0.00,OVC,,0.00,0.0,WeatherDisplay:10.37,2013-09-15 22:34:00,
2013-09-15 18:39:00,77.0,69.6,30.13,ENE,61,3.1,8.1,78,0.00,OVC,,0.00,0.0,WeatherDisplay:10.37,2013-09-15 22:39:00,
2013-09-15 18:44:00,76.8,69.4,30.13,NE,40,2.1,3.5,78,0.00,OVC,,0.00,0.0,WeatherDisplay:10.37,2013-09-15 22:44:00,
2013-09-15 18:49:00,76.7,69.3,30.13,ENE,65,2.0,3.5,78,0.00,OVC,,0.00,0.0,WeatherDisplay:10.37,2013-09-15 22:49:00,
2013-09-15 18:54:00,76.5,69.5,30.13,ESE,119,2.4,4.0,79,0.00,OVC,,0.00,0.0,WeatherDisplay:10.37,2013-09-15 22:54:00,
2013-09-15 18:59:00,76.4,69.4,30.13,East,92,3.3,4.6,79,0.00,OVC,,0.00,0.0,WeatherDisplay:10.37,2013-09-15 22:59:00,
2013-09-15 19:04:00,76.2,69.6,30.13,ESE,103,2.1,3.5,80,0.00,OVC,,0.00,0.0,WeatherDisplay:10.37,2013-09-15 23:04:00,
2013-09-15 19:09:00,76.1,69.5,30.13,ESE,103,2.8,4.6,80,0.00,OVC,,0.00,0.0,WeatherDisplay:10.37,2013-09-15 23:09:00,
2013-09-15 19:14:00,75.9,69.3,30.13,East,87,1.1,5.0,80,0.00,OVC,,0.00,0.0,WeatherDisplay:10.37,2013-09-15 23:14:00,
2013-09-15 19:19:00,75.8,69.6,30.13,East,96,2.3,3.5,81,0.00,OVC,,0.00,0.0,WeatherDisplay:10.37,2013-09-15 23:19:00,
2013-09-15 19:24:00,75.6,69.4,30.13,East,96,0.6,0.0,81,0.00,OVC,,0.00,0.0,WeatherDisplay:10.37,2013-09-15 23:24:00,
2013-09-15 19:29:00,75.5,69.6,30.14,East,96,0.0,0.0,82,0.00,OVC,,0.00,0.0,WeatherDisplay:10.37,2013-09-15 23:29:00,
2013-09-15 19:34:00,75.3,69.4,30.14,East,86,0.0,1.1,82,0.00,OVC,,0.00,0.0,WeatherDisplay:10.37,2013-09-15 23:34:00,
2013-09-15 19:39:00,75.2,69.3,30.14,ENE,74,0.0,0.0,82,0.00,OVC,,0.00,0.0,WeatherDisplay:10.37,2013-09-15 23:39:00,
2013-09-15 19:44:00,75.1,69.6,30.14,East,99,0.0,0.0,83,0.00,OVC,,0.00,0.0,WeatherDisplay:10.37,2013-09-15 23:44:00,
2013-09-15 19:49:00,75.0,69.5,30.14,East,94,0.1,1.1,83,0.00,OVC,,0.00,0.0,WeatherDisplay:10.37,2013-09-15 23:49:00,
2013-09-15 19:54:00,74.9,69.4,30.14,SE,125,0.6,2.3,83,0.00,CLR,OVC,0.00,0.0,WeatherDisplay:10.37,2013-09-15 23:54:00,
2013-09-15 19:59:00,74.8,69.6,30.14,ESE,103,0.8,1.1,84,0.00,CLR,OVC,0.00,0.0,WeatherDisplay:10.37,2013-09-15 23:59:00,
2013-09-15 20:04:00,74.9,69.7,30.14,ENE,57,1.0,4.0,84,0.00,CLR,OVC,0.00,0.0,WeatherDisplay:10.37,2013-09-16 00:04:00,
2013-09-15 20:09:00,74.9,69.7,30.14,East,100,0.1,1.1,84,0.00,CLR,OVC,0.00,0.0,WeatherDisplay:10.37,2013-09-16 00:09:00,
2013-09-15 20:14:00,74.9,69.7,30.14,East,86,0.0,0.0,84,0.00,CLR,OVC,0.00,0.0,WeatherDisplay:10.37,2013-09-16 00:14:00,
2013-09-15 20:19:00,74.9,69.7,30.14,ESE,123,0.1,1.0,84,0.00,CLR,OVC,0.00,0.0,WeatherDisplay:10.37,2013-09-16 00:19:00,
2013-09-15 20:24:00,74.9,70.1,30.14,ENE,61,0.3,4.6,85,0.00,CLR,OVC,0.00,0.0,WeatherDisplay:10.37,2013-09-16 00:24:00,
2013-09-15 20:29:00,75.0,70.2,30.14,East,79,0.0,0.0,85,0.00,CLR,OVC,0.00,0.0,WeatherDisplay:10.37,2013-09-16 00:29:00,
2013-09-15 20:34:00,75.0,70.2,30.14,ESE,123,0.7,4.6,85,0.00,CLR,OVC,0.00,0.0,WeatherDisplay:10.37,2013-09-16 00:34:00,
2013-09-15 20:39:00,74.9,70.1,30.14,SE,134,2.1,4.0,85,0.00,CLR,OVC,0.00,0.0,WeatherDisplay:10.37,2013-09-16 00:39:00,
2013-09-15 20:44:00,74.9,70.1,30.14,NE,46,0.4,1.1,85,0.00,CLR,OVC,0.00,0.0,WeatherDisplay:10.37,2013-09-16 00:44:00,
2013-09-15 20:49:00,74.9,70.1,30.14,ENE,71,1.0,3.5,85,0.00,CLR,OVC,0.00,0.0,WeatherDisplay:10.37,2013-09-16 00:49:00,
2013-09-15 20:54:00,74.8,70.3,30.14,SE,146,0.6,4.6,86,0.00,CLR,OVC,0.00,0.0,WeatherDisplay:10.37,2013-09-16 00:54:00,
2013-09-15 20:59:00,74.8,70.3,30.14,East,101,0.0,0.0,86,0.00,CLR,OVC,0.00,0.0,WeatherDisplay:10.37,2013-09-16 00:59:00,
2013-09-15 21:04:00,74.8,70.3,30.14,ENE,70,1.3,3.5,86,0.00,CLR,OVC,0.00,0.0,WeatherDisplay:10.37,2013-09-16 01:04:00,
2013-09-15 21:09:00,74.8,70.3,30.14,ESE,115,0.0,0.0,86,0.00,CLR,OVC,0.00,0.0,WeatherDisplay:10.37,2013-09-16 01:09:00,
2013-09-15 21:14:00,74.7,70.6,30.14,NE,40,0.6,3.5,87,0.00,CLR,OVC,0.00,0.0,WeatherDisplay:10.37,2013-09-16 01:14:00,
2013-09-15 21:19:00,74.7,70.6,30.15,East,81,0.3,2.3,87,0.00,CLR,OVC,0.00,0.0,WeatherDisplay:10.37,2013-09-16 01:19:00,
2013-09-15 21:24:00,74.6,70.5,30.14,East,86,0.9,3.5,87,0.00,CLR,OVC,0.00,0.0,WeatherDisplay:10.37,2013-09-16 01:24:00,
2013-09-15 21:29:00,74.6,70.5,30.15,East,84,0.0,0.0,87,0.00,CLR,OVC,0.00,0.0,WeatherDisplay:10.37,2013-09-16 01:29:00,
2013-09-15 21:34:00,74.5,70.4,30.14,East,84,0.1,1.1,87,0.00,CLR,OVC,0.00,0.0,WeatherDisplay:10.37,2013-09-16 01:34:00,
2013-09-15 21:39:00,74.4,70.3,30.14,ENE,72,0.0,0.0,87,0.00,CLR,OVC,0.00,0.0,WeatherDisplay:10.37,2013-09-16 01:39:00,
2013-09-15 21:44:00,74.4,70.6,30.14,ENE,71,0.5,3.0,88,0.00,CLR,OVC,0.00,0.0,WeatherDisplay:10.37,2013-09-16 01:44:00,
2013-09-15 21:49:00,74.3,70.5,30.14,East,84,0.5,2.3,88,0.00,CLR,OVC,0.00,0.0,WeatherDisplay:10.37,2013-09-16 01:49:00,
2013-09-15 21:54:00,74.3,70.5,30.14,ENE,61,0.2,1.1,88,0.00,CLR,OVC,0.00,0.0,WeatherDisplay:10.37,2013-09-16 01:54:00,
2013-09-15 21:59:00,74.3,70.8,30.15,SE,126,0.4,2.3,89,0.00,CLR,OVC,0.00,0.0,WeatherDisplay:10.37,2013-09-16 01:59:00,
2013-09-15 22:04:00,74.4,70.9,30.15,East,93,0.0,0.0,89,0.00,CLR,OVC,0.00,0.0,WeatherDisplay:10.37,2013-09-16 02:04:00,
2013-09-15 22:09:00,74.5,71.0,30.15,East,96,1.9,6.9,89,0.00,CLR,OVC,0.00,0.0,WeatherDisplay:10.37,2013-09-16 02:09:00,
2013-09-15 22:14:00,74.6,71.1,30.15,ESE,109,0.0,0.0,89,0.00,CLR,OVC,0.00,0.0,WeatherDisplay:10.37,2013-09-16 02:14:00,
2013-09-15 22:19:00,74.7,71.2,30.15,ESE,123,2.7,3.5,89,0.00,CLR,OVC,0.00,0.0,WeatherDisplay:10.37,2013-09-16 02:19:00,
2013-09-15 22:24:00,74.7,71.2,30.15,ENE,65,0.8,3.5,89,0.00,CLR,OVC,0.00,0.0,WeatherDisplay:10.37,2013-09-16 02:24:00,
2013-09-15 22:29:00,74.8,71.3,30.15,ESE,113,2.4,4.6,89,0.00,CLR,OVC,0.00,0.0,WeatherDisplay:10.37,2013-09-16 02:29:00,
2013-09-15 22:34:00,74.8,71.3,30.16,ESE,107,2.1,3.5,89,0.00,CLR,OVC,0.00,0.0,WeatherDisplay:10.37,2013-09-16 02:34:00,
2013-09-15 22:39:00,74.9,71.4,30.16,East,101,0.5,0.0,89,0.00,CLR,OVC,0.00,0.0,WeatherDisplay:10.37,2013-09-16 02:39:00,
2013-09-15 22:44:00,74.8,71.3,30.16,East,101,0.6,0.0,89,0.00,CLR,OVC,0.00,0.0,WeatherDisplay:10.37,2013-09-16 02:44:00,
2013-09-15 22:49:00,74.7,71.2,30.16,ESE,115,1.2,2.3,89,0.00,CLR,OVC,0.00,0.0,WeatherDisplay:10.37,2013-09-16 02:49:00,
2013-09-15 22:54:00,74.7,71.6,30.15,ESE,107,2.0,3.5,90,0.00,CLR,OVC,0.00,0.0,WeatherDisplay:10.37,2013-09-16 02:54:00,
2013-09-15 23:00:00,74.8,71.7,30.15,ESE,117,0.1,3.5,90,0.00,CLR,OVC,0.00,0.0,WeatherDisplay:10.37,2013-09-16 03:00:00,
2013-09-15 23:05:00,74.8,71.7,30.15,ENE,72,0.8,2.3,90,0.00,CLR,OVC,0.00,0.0,WeatherDisplay:10.37,2013-09-16 03:05:00,
2013-09-15 23:10:00,74.9,71.8,30.15,East,99,0.8,2.3,90,0.00,CLR,OVC,0.00,0.0,WeatherDisplay:10.37,2013-09-16 03:10:00,
2013-09-15 23:15:00,74.9,71.8,30.15,ESE,123,2.3,3.5,90,0.00,CLR,OVC,0.00,0.0,WeatherDisplay:10.37,2013-09-16 03:15:00,
2013-09-15 23:20:00,74.9,71.8,30.15,East,94,0.7,2.3,90,0.00,CLR,OVC,0.00,0.0,WeatherDisplay:10.37,2013-09-16 03:20:00,
2013-09-15 23:25:00,74.9,71.8,30.15,ESE,113,0.5,3.5,90,0.00,CLR,OVC,0.00,0.0,WeatherDisplay:10.37,2013-09-16 03:25:00,
2013-09-15 23:30:00,74.9,71.8,30.15,ESE,103,0.1,0.0,90,0.00,CLR,OVC,0.00,0.0,WeatherDisplay:10.37,2013-09-16 03:30:00,
2013-09-15 23:35:00,74.9,71.8,30.15,ESE,120,0.0,2.0,90,0.00,CLR,OVC,0.00,0.0,WeatherDisplay:10.37,2013-09-16 03:35:00,
2013-09-15 23:40:00,74.9,72.1,30.15,East,96,1.2,1.2,91,0.00,CLR,OVC,0.00,0.0,WeatherDisplay:10.37,2013-09-16 03:40:00,
2013-09-15 23:45:00,74.9,71.8,30.15,East,96,0.0,0.0,90,0.00,CLR,OVC,0.00,0.0,WeatherDisplay:10.37,2013-09-16 03:45:00,
2013-09-15 23:50:00,74.9,72.1,30.14,East,95,0.0,0.0,91,0.00,CLR,OVC,0.00,0.0,WeatherDisplay:10.37,2013-09-16 03:50:00,
2013-09-15 23:55:00,74.8,72.0,30.15,East,95,0.0,0.0,91,0.00,CLR,OVC,0.00,0.0,WeatherDisplay:10.37,2013-09-16 03:55:00,